createdAt,value
2018-01-23T00:00:59.182Z,101327
2018-01-23T00:03:27.492Z,101333
2018-01-23T00:05:55.651Z,101323
2018-01-23T00:08:24.772Z,101332
2018-01-23T00:10:53.004Z,101323
2018-01-23T00:13:21.990Z,101330
2018-01-23T00:15:50.247Z,101337
2018-01-23T00:18:18.426Z,101337
2018-01-23T00:20:46.813Z,101332
2018-01-23T00:23:14.994Z,101331
2018-01-23T00:25:44.032Z,101344
2018-01-23T00:28:13.136Z,101346
2018-01-23T00:30:41.299Z,101356
2018-01-23T00:33:09.482Z,101364
2018-01-23T00:35:37.648Z,101349
2018-01-23T00:38:05.842Z,101352
2018-01-23T00:40:34.004Z,101360
2018-01-23T00:43:02.194Z,101372
2018-01-23T00:45:30.402Z,101370
2018-01-23T00:47:59.334Z,101385
2018-01-23T00:50:27.497Z,101392
2018-01-23T00:52:55.692Z,101392
2018-01-23T00:55:23.983Z,101389
2018-01-23T00:57:52.187Z,101391
2018-01-23T01:00:21.189Z,101396
2018-01-23T01:02:49.413Z,101394
2018-01-23T01:05:18.401Z,101385
2018-01-23T01:07:46.574Z,101385
2018-01-23T01:10:15.559Z,101384
2018-01-23T01:12:43.758Z,101391
2018-01-23T01:15:12.107Z,101400
2018-01-23T01:17:40.290Z,101403
2018-01-23T01:20:08.463Z,101402
2018-01-23T01:22:36.671Z,101408
2018-01-23T01:25:05.645Z,101411
2018-01-23T01:27:33.899Z,101419
2018-01-23T01:30:02.104Z,101425
2018-01-23T01:32:30.296Z,101427
2018-01-23T01:34:59.394Z,101431
2018-01-23T01:37:29.206Z,101438
2018-01-23T01:39:58.180Z,101451
2018-01-23T01:42:26.337Z,101454
2018-01-23T01:44:54.568Z,101458
2018-01-23T01:47:22.833Z,101459
2018-01-23T01:49:51.069Z,101459
2018-01-23T01:52:19.297Z,101445
2018-01-23T01:54:47.497Z,101458
2018-01-23T01:57:15.761Z,101466
2018-01-23T01:59:43.933Z,101464
2018-01-23T02:02:12.127Z,101452
2018-01-23T02:04:40.308Z,101454
2018-01-23T02:07:08.503Z,101447
2018-01-23T02:09:37.949Z,101459
2018-01-23T02:12:06.142Z,101458
2018-01-23T02:14:34.570Z,101464
2018-01-23T02:17:02.791Z,101457
2018-01-23T02:19:30.943Z,101466
2018-01-23T02:21:59.159Z,101466
2018-01-23T02:24:27.319Z,101463
2018-01-23T02:26:55.521Z,101467
2018-01-23T02:29:24.447Z,101476
2018-01-23T02:31:52.616Z,101474
2018-01-23T02:34:20.809Z,101475
2018-01-23T02:36:49.060Z,101490
2018-01-23T02:39:17.200Z,101489
2018-01-23T02:41:45.361Z,101497
2018-01-23T02:44:13.532Z,101492
2018-01-23T02:46:41.784Z,101494
2018-01-23T02:49:09.929Z,101493
2018-01-23T02:51:38.093Z,101495
2018-01-23T02:54:06.439Z,101501
2018-01-23T02:56:34.579Z,101502
2018-01-23T02:59:02.782Z,101509
2018-01-23T03:01:30.925Z,101509
2018-01-23T03:03:59.087Z,101501
2018-01-23T03:06:27.242Z,101511
2018-01-23T03:08:55.413Z,101507
2018-01-23T03:11:23.577Z,101511
2018-01-23T03:13:51.768Z,101519
2018-01-23T03:16:19.942Z,101518
2018-01-23T03:18:48.095Z,101518
2018-01-23T03:21:16.299Z,101519
2018-01-23T03:23:44.592Z,101529
2018-01-23T03:26:12.796Z,101534
2018-01-23T03:28:41.713Z,101537
2018-01-23T03:31:09.920Z,101537
2018-01-23T03:33:38.199Z,101539
2018-01-23T03:36:06.370Z,101540
2018-01-23T03:38:34.524Z,101543
2018-01-23T03:41:02.694Z,101548
2018-01-23T03:43:30.851Z,101551
2018-01-23T03:45:58.999Z,101558
2018-01-23T03:48:27.935Z,101557
2018-01-23T03:50:56.126Z,101557
2018-01-23T03:53:24.295Z,101560
2018-01-23T03:55:52.501Z,101559
2018-01-23T03:58:20.708Z,101563
2018-01-23T04:00:48.858Z,101563
2018-01-23T04:03:17.768Z,101563
2018-01-23T04:05:45.920Z,101579
2018-01-23T04:08:14.959Z,101577
2018-01-23T04:10:43.155Z,101578
2018-01-23T04:13:11.338Z,101588
2018-01-23T04:15:39.514Z,101588
2018-01-23T04:18:07.663Z,101588
2018-01-23T04:20:36.583Z,101588
2018-01-23T04:23:04.729Z,101596
2018-01-23T04:25:32.883Z,101598
2018-01-23T04:28:01.034Z,101607
2018-01-23T04:30:29.230Z,101617
2018-01-23T04:32:57.504Z,101615
2018-01-23T04:35:25.663Z,101618
2018-01-23T04:37:53.807Z,101618
2018-01-23T04:40:22.741Z,101618
2018-01-23T04:42:50.874Z,101618
2018-01-23T04:45:19.839Z,101628
2018-01-23T04:47:47.978Z,101631
2018-01-23T04:50:16.134Z,101632
2018-01-23T04:52:44.309Z,101630
2018-01-23T04:55:12.468Z,101635
2018-01-23T04:57:40.632Z,101645
2018-01-23T05:00:09.531Z,101641
2018-01-23T05:02:37.679Z,101642
2018-01-23T05:05:05.835Z,101636
2018-01-23T05:07:33.980Z,101647
2018-01-23T05:10:02.185Z,101643
2018-01-23T05:12:30.393Z,101651
2018-01-23T05:14:59.315Z,101642
2018-01-23T05:17:27.468Z,101646
2018-01-23T05:19:55.625Z,101649
2018-01-23T05:22:23.796Z,101655
2018-01-23T05:24:52.702Z,101653
2018-01-23T05:27:20.870Z,101660
2018-01-23T05:29:49.038Z,101665
2018-01-23T05:32:17.273Z,101670
2018-01-23T05:34:45.519Z,101652
2018-01-23T05:37:13.769Z,101669
2018-01-23T05:39:42.665Z,101664
2018-01-23T05:42:10.815Z,101668
2018-01-23T05:44:39.740Z,101672
2018-01-23T05:47:07.906Z,101673
2018-01-23T05:49:36.127Z,101677
2018-01-23T05:52:04.325Z,101677
2018-01-23T05:54:33.245Z,101681
2018-01-23T05:57:01.404Z,101683
2018-01-23T05:59:29.561Z,101682
2018-01-23T06:01:58.450Z,101676
2018-01-23T06:04:27.345Z,101681
2018-01-23T06:06:56.281Z,101684
2018-01-23T06:09:24.485Z,101688
2018-01-23T06:11:52.636Z,101697
2018-01-23T06:14:20.883Z,101698
2018-01-23T06:16:49.067Z,101701
2018-01-23T06:19:17.303Z,101710
2018-01-23T06:21:46.240Z,101701
2018-01-23T06:24:14.375Z,101700
2018-01-23T06:26:42.523Z,101706
2018-01-23T06:29:11.495Z,101709
2018-01-23T06:31:39.636Z,101712
2018-01-23T06:34:07.811Z,101712
2018-01-23T06:36:35.969Z,101714
2018-01-23T06:39:04.187Z,101714
2018-01-23T06:41:32.326Z,101718
2018-01-23T06:44:00.488Z,101721
2018-01-23T06:46:28.652Z,101721
2018-01-23T06:48:56.886Z,101735
2018-01-23T06:51:25.034Z,101737
2018-01-23T06:53:53.211Z,101743
2018-01-23T06:56:21.464Z,101746
2018-01-23T06:58:49.721Z,101742
2018-01-23T07:01:18.173Z,101746
2018-01-23T07:03:46.323Z,101747
2018-01-23T07:06:15.246Z,101758
2018-01-23T07:08:44.162Z,101764
2018-01-23T07:11:12.338Z,101766
2018-01-23T07:13:41.315Z,101765
2018-01-23T07:16:09.476Z,101770
2018-01-23T07:18:38.390Z,101778
2018-01-23T07:21:06.552Z,101771
2018-01-23T07:23:34.698Z,101776
2018-01-23T07:26:03.656Z,101783
2018-01-23T07:28:31.802Z,101780
2018-01-23T07:30:59.955Z,101775
2018-01-23T07:33:28.114Z,101780
2018-01-23T07:35:56.274Z,101781
2018-01-23T07:38:24.458Z,101786
2018-01-23T07:40:52.737Z,101795
2018-01-23T07:43:21.720Z,101797
2018-01-23T07:45:49.863Z,101792
2018-01-23T07:48:18.030Z,101798
2018-01-23T07:50:46.214Z,101803
2018-01-23T07:53:14.371Z,101804
2018-01-23T07:55:42.525Z,101806
2018-01-23T07:58:10.674Z,101811
2018-01-23T08:00:39.694Z,101807
2018-01-23T08:05:47.643Z,101818
2018-01-23T08:08:15.802Z,101811
2018-01-23T08:10:43.964Z,101810
2018-01-23T08:13:12.212Z,101808
2018-01-23T08:15:40.373Z,101799
2018-01-23T08:18:08.578Z,101813
2018-01-23T08:20:36.769Z,101826
2018-01-23T08:23:05.119Z,101822
2018-01-23T08:25:33.370Z,101827
2018-01-23T08:28:02.330Z,101829
2018-01-23T08:30:30.490Z,101832
2018-01-23T08:32:58.684Z,101827
2018-01-23T08:35:26.859Z,101823
2018-01-23T08:37:54.989Z,101830
2018-01-23T08:40:23.156Z,101836
2018-01-23T08:42:51.308Z,101844
2018-01-23T08:45:19.497Z,101843
2018-01-23T08:47:47.852Z,101849
2018-01-23T08:50:16.015Z,101845
2018-01-23T08:52:44.998Z,101838
2018-01-23T08:55:13.970Z,101844
2018-01-23T08:57:42.156Z,101841
2018-01-23T09:00:11.083Z,101847
2018-01-23T09:02:39.397Z,101839
2018-01-23T09:05:07.630Z,101846
2018-01-23T09:07:35.794Z,101847
2018-01-23T09:10:03.955Z,101842
2018-01-23T09:12:32.883Z,101841
2018-01-23T09:15:01.062Z,101840
2018-01-23T09:17:29.268Z,101847
2018-01-23T09:19:57.460Z,101844
2018-01-23T09:22:26.446Z,101844
2018-01-23T09:24:54.598Z,101849
2018-01-23T09:27:22.798Z,101858
2018-01-23T09:29:51.731Z,101854
2018-01-23T09:32:19.961Z,101846
2018-01-23T09:34:48.141Z,101849
2018-01-23T09:37:16.338Z,101844
2018-01-23T09:39:44.495Z,101854
2018-01-23T09:42:12.677Z,101860
2018-01-23T09:44:40.847Z,101869
2018-01-23T09:47:09.863Z,101859
2018-01-23T09:49:38.156Z,101860
2018-01-23T09:52:06.343Z,101858
2018-01-23T09:54:34.582Z,101869
2018-01-23T09:57:02.770Z,101875
2018-01-23T09:59:30.916Z,101879
2018-01-23T10:01:59.124Z,101886
2018-01-23T10:04:27.325Z,101874
2018-01-23T10:06:55.498Z,101876
2018-01-23T10:09:23.661Z,101877
2018-01-23T10:11:51.830Z,101883
2018-01-23T10:14:19.978Z,101879
2018-01-23T10:16:48.117Z,101877
2018-01-23T10:19:17.088Z,101875
2018-01-23T10:21:46.150Z,101869
2018-01-23T10:24:14.426Z,101876
2018-01-23T10:26:42.583Z,101875
2018-01-23T10:29:10.741Z,101882
2018-01-23T10:31:39.746Z,101880
2018-01-23T10:34:07.891Z,101880
2018-01-23T10:36:36.052Z,101879
2018-01-23T10:39:04.221Z,101855
2018-01-23T10:41:32.396Z,101859
2018-01-23T10:44:00.553Z,101860
2018-01-23T10:46:28.702Z,101852
2018-01-23T10:48:56.871Z,101851
2018-01-23T10:51:25.045Z,101847
2018-01-23T10:53:53.274Z,101847
2018-01-23T10:56:21.450Z,101842
2018-01-23T10:58:50.393Z,101850
2018-01-23T11:01:18.574Z,101837
2018-01-23T11:03:46.748Z,101838
2018-01-23T11:06:14.904Z,101841
2018-01-23T11:08:43.059Z,101843
2018-01-23T11:11:11.348Z,101839
2018-01-23T11:13:39.540Z,101840
2018-01-23T11:16:07.755Z,101847
2018-01-23T11:18:35.906Z,101852
2018-01-23T11:21:04.295Z,101853
2018-01-23T11:23:32.479Z,101849
2018-01-23T11:26:01.420Z,101833
2018-01-23T11:28:29.616Z,101842
2018-01-23T11:30:57.786Z,101840
2018-01-23T11:33:25.952Z,101837
2018-01-23T11:35:54.115Z,101832
2018-01-23T11:38:22.336Z,101837
2018-01-23T11:40:50.482Z,101824
2018-01-23T11:43:19.409Z,101830
2018-01-23T11:45:48.337Z,101828
2018-01-23T11:48:16.499Z,101834
2018-01-23T11:50:44.715Z,101836
2018-01-23T11:53:12.889Z,101830
2018-01-23T11:55:41.034Z,101827
2018-01-23T11:58:09.188Z,101821
2018-01-23T12:00:37.347Z,101819
2018-01-23T12:03:06.296Z,101815
2018-01-23T12:05:34.477Z,101816
2018-01-23T12:08:02.654Z,101818
2018-01-23T12:10:30.979Z,101812
2018-01-23T12:12:59.201Z,101815
2018-01-23T12:15:27.418Z,101812
2018-01-23T12:17:55.613Z,101814
2018-01-23T12:20:23.757Z,101815
2018-01-23T12:22:51.923Z,101807
2018-01-23T12:25:20.116Z,101806
2018-01-23T12:27:48.336Z,101806
2018-01-23T12:30:16.512Z,101816
2018-01-23T12:32:44.682Z,101803
2018-01-23T12:35:12.844Z,101806
2018-01-23T12:37:40.998Z,101814
2018-01-23T12:40:09.155Z,101809
2018-01-23T12:42:37.344Z,101801
2018-01-23T12:45:05.517Z,101807
2018-01-23T12:47:33.853Z,101797
2018-01-23T12:50:02.011Z,101808
2018-01-23T12:52:30.307Z,101798
2018-01-23T12:54:59.235Z,101786
2018-01-23T12:57:27.715Z,101797
2018-01-23T12:59:55.872Z,101797
2018-01-23T13:02:24.029Z,101794
2018-01-23T13:04:52.224Z,101796
2018-01-23T13:07:21.194Z,101785
2018-01-23T13:09:49.346Z,101784
2018-01-23T13:12:18.328Z,101791
2018-01-23T13:14:46.489Z,101790
2018-01-23T13:17:14.639Z,101783
2018-01-23T13:19:42.827Z,101780
2018-01-23T13:22:11.053Z,101776
2018-01-23T13:24:39.252Z,101786
2018-01-23T13:27:07.494Z,101781
2018-01-23T13:29:36.404Z,101782
2018-01-23T13:32:04.631Z,101774
2018-01-23T13:34:32.852Z,101774
2018-01-23T13:37:01.078Z,101778
2018-01-23T13:39:29.251Z,101770
2018-01-23T13:41:57.402Z,101763
2018-01-23T13:44:25.566Z,101758
2018-01-23T13:46:53.765Z,101763
2018-01-23T13:49:21.926Z,101761
2018-01-23T13:51:50.289Z,101760
2018-01-23T13:54:18.436Z,101754
2018-01-23T13:56:46.650Z,101759
2018-01-23T13:59:14.880Z,101747
2018-01-23T14:01:43.893Z,101740
2018-01-23T14:04:12.058Z,101740
2018-01-23T14:06:40.396Z,101735
2018-01-23T14:09:08.567Z,101731
2018-01-23T14:11:37.521Z,101723
2018-01-23T14:14:05.786Z,101716
2018-01-23T14:16:34.089Z,101727
2018-01-23T14:19:02.629Z,101718
2018-01-23T14:21:30.783Z,101727
2018-01-23T14:23:59.837Z,101719
2018-01-23T14:26:28.040Z,101715
2018-01-23T14:28:56.984Z,101716
2018-01-23T14:31:25.404Z,101718
2018-01-23T14:33:54.331Z,101718
2018-01-23T14:36:22.482Z,101720
2018-01-23T14:38:50.631Z,101725
2018-01-23T14:41:18.838Z,101720
2018-01-23T14:43:46.993Z,101718
2018-01-23T14:46:15.150Z,101715
2018-01-23T14:48:43.364Z,101707
2018-01-23T14:51:11.565Z,101701
2018-01-23T14:53:39.874Z,101699
2018-01-23T14:56:08.850Z,101699
2018-01-23T14:58:37.014Z,101695
2018-01-23T15:01:05.253Z,101699
2018-01-23T15:03:33.403Z,101697
2018-01-23T15:06:02.358Z,101707
2018-01-23T15:08:30.535Z,101695
2018-01-23T15:10:58.758Z,101693
2018-01-23T15:13:27.740Z,101703
2018-01-23T15:15:55.881Z,101694
2018-01-23T15:18:24.898Z,101685
2018-01-23T15:20:53.844Z,101690
2018-01-23T15:23:22.020Z,101687
2018-01-23T15:25:50.191Z,101690
2018-01-23T15:28:18.421Z,101688
2018-01-23T15:30:46.608Z,101682
2018-01-23T15:33:14.969Z,101680
2018-01-23T15:35:43.841Z,101691
2018-01-23T15:38:12.773Z,101679
2018-01-23T15:40:40.935Z,101689
2018-01-23T15:43:09.094Z,101678
2018-01-23T15:45:37.245Z,101666
2018-01-23T15:48:06.221Z,101676
2018-01-23T15:50:34.415Z,101664
2018-01-23T15:53:03.370Z,101671
2018-01-23T15:55:31.620Z,101668
2018-01-23T15:57:59.781Z,101663
2018-01-23T16:00:28.012Z,101668
2018-01-23T16:02:56.218Z,101667
2018-01-23T16:05:24.452Z,101674
2018-01-23T16:07:52.648Z,101664
2018-01-23T16:10:21.568Z,101661
2018-01-23T16:12:49.760Z,101650
2018-01-23T16:15:17.922Z,101655
2018-01-23T16:17:46.120Z,101654
2018-01-23T16:20:14.346Z,101652
2018-01-23T16:22:42.528Z,101649
2018-01-23T16:25:10.707Z,101652
2018-01-23T16:27:38.872Z,101638
2018-01-23T16:30:07.047Z,101649
2018-01-23T16:32:35.210Z,101646
2018-01-23T16:35:03.458Z,101650
2018-01-23T16:37:31.674Z,101649
2018-01-23T16:40:00.258Z,101646
2018-01-23T16:42:29.505Z,101639
2018-01-23T16:44:59.311Z,101635
2018-01-23T16:47:27.730Z,101630
2018-01-23T16:49:55.924Z,101627
2018-01-23T16:52:24.108Z,101617
2018-01-23T16:54:52.259Z,101624
2018-01-23T16:57:20.413Z,101631
2018-01-23T16:59:48.567Z,101627
2018-01-23T17:02:16.746Z,101616
2018-01-23T17:04:45.728Z,101612
2018-01-23T17:07:13.941Z,101602
2018-01-23T17:09:42.185Z,101603
2018-01-23T17:12:10.376Z,101612
2018-01-23T17:14:38.538Z,101598
2018-01-23T17:17:07.660Z,101593
2018-01-23T17:19:35.904Z,101600
2018-01-23T17:22:04.862Z,101588
2018-01-23T17:24:33.016Z,101588
2018-01-23T17:27:01.163Z,101578
2018-01-23T17:29:29.315Z,101581
2018-01-23T17:31:57.490Z,101577
2018-01-23T17:34:27.232Z,101582
2018-01-23T17:36:55.480Z,101569
2018-01-23T17:39:23.691Z,101568
2018-01-23T17:41:52.202Z,101566
2018-01-23T17:44:20.417Z,101564
2018-01-23T17:46:48.704Z,101560
2018-01-23T17:49:16.854Z,101563
2018-01-23T17:51:45.853Z,101566
2018-01-23T17:54:14.100Z,101567
2018-01-23T17:56:42.297Z,101560
2018-01-23T17:59:11.233Z,101557
2018-01-23T18:01:40.203Z,101555
2018-01-23T18:04:08.431Z,101549
2018-01-23T18:06:36.658Z,101545
2018-01-23T18:09:04.859Z,101538
2018-01-23T18:11:33.050Z,101534
2018-01-23T18:14:01.259Z,101526
2018-01-23T18:16:29.466Z,101522
2018-01-23T18:18:57.611Z,101525
2018-01-23T18:21:25.857Z,101526
2018-01-23T18:23:54.298Z,101511
2018-01-23T18:26:22.531Z,101517
2018-01-23T18:28:50.838Z,101512
2018-01-23T18:31:19.007Z,101514
2018-01-23T18:33:47.181Z,101512
2018-01-23T18:36:15.353Z,101507
2018-01-23T18:38:43.608Z,101498
2018-01-23T18:41:11.807Z,101494
2018-01-23T18:43:40.001Z,101498
2018-01-23T18:46:08.203Z,101494
2018-01-23T18:48:37.230Z,101486
2018-01-23T18:51:05.448Z,101468
2018-01-23T18:53:33.627Z,101473
2018-01-23T18:56:01.845Z,101470
2018-01-23T18:58:30.026Z,101470
2018-01-23T19:00:58.194Z,101466
2018-01-23T19:03:26.362Z,101456
2018-01-23T19:05:54.537Z,101449
2018-01-23T19:08:22.733Z,101460
2018-01-23T19:10:50.978Z,101453
2018-01-23T19:13:19.328Z,101451
2018-01-23T19:15:47.515Z,101448
2018-01-23T19:18:16.535Z,101453
2018-01-23T19:20:44.853Z,101441
2018-01-23T19:23:13.010Z,101445
2018-01-23T19:25:41.950Z,101446
2018-01-23T19:28:10.934Z,101446
2018-01-23T19:30:39.074Z,101433
2018-01-23T19:33:07.272Z,101429
2018-01-23T19:35:36.208Z,101428
2018-01-23T19:38:04.580Z,101425
2018-01-23T19:40:32.822Z,101433
2018-01-23T19:43:01.827Z,101421
2018-01-23T19:45:30.067Z,101440
2018-01-23T19:47:58.224Z,101434
2018-01-23T19:50:26.389Z,101433
2018-01-23T19:52:54.598Z,101432
2018-01-23T19:55:22.766Z,101437
2018-01-23T19:57:51.079Z,101427
2018-01-23T20:00:19.241Z,101421
2018-01-23T20:02:48.153Z,101422
2018-01-23T20:05:16.331Z,101416
2018-01-23T20:07:46.343Z,101411
2018-01-23T20:10:14.616Z,101401
2018-01-23T20:12:42.891Z,101398
2018-01-23T20:15:11.041Z,101401
2018-01-23T20:17:39.996Z,101401
2018-01-23T20:20:08.155Z,101404
2018-01-23T20:22:36.335Z,101391
2018-01-23T20:25:04.491Z,101389
2018-01-23T20:27:32.705Z,101378
2018-01-23T20:30:01.731Z,101378
2018-01-23T20:32:29.894Z,101373
2018-01-23T20:34:58.064Z,101380
2018-01-23T20:37:26.241Z,101368
2018-01-23T20:39:54.458Z,101371
2018-01-23T20:42:22.631Z,101372
2018-01-23T20:44:50.806Z,101380
2018-01-23T20:47:18.966Z,101378
2018-01-23T20:49:47.145Z,101378
2018-01-23T20:52:15.417Z,101381
2018-01-23T20:54:43.631Z,101381
2018-01-23T20:57:12.177Z,101366
2018-01-23T20:59:40.337Z,101370
2018-01-23T21:02:08.515Z,101361
2018-01-23T21:04:36.732Z,101373
2018-01-23T21:07:04.887Z,101361
2018-01-23T21:09:33.050Z,101363
2018-01-23T21:12:01.254Z,101351
2018-01-23T21:14:30.245Z,101359
2018-01-23T21:16:58.431Z,101357
2018-01-23T21:19:27.429Z,101363
2018-01-23T21:21:56.350Z,101368
2018-01-23T21:24:24.864Z,101367
2018-01-23T21:26:53.045Z,101351
2018-01-23T21:29:21.361Z,101351
2018-01-23T21:31:49.588Z,101357
2018-01-23T21:34:17.752Z,101349
2018-01-23T21:36:45.932Z,101356
2018-01-23T21:39:14.147Z,101355
2018-01-23T21:41:42.451Z,101339
2018-01-23T21:44:11.405Z,101352
2018-01-23T21:46:39.589Z,101336
2018-01-23T21:49:07.865Z,101341
2018-01-23T21:51:36.046Z,101319
2018-01-23T21:54:04.234Z,101331
2018-01-23T21:56:32.411Z,101328
2018-01-23T21:59:00.657Z,101309
2018-01-23T22:01:28.892Z,101309
2018-01-23T22:03:57.070Z,101297
2018-01-23T22:06:25.250Z,101301
2018-01-23T22:08:53.427Z,101306
2018-01-23T22:11:21.749Z,101297
2018-01-23T22:13:49.958Z,101296
2018-01-23T22:16:18.141Z,101289
2018-01-23T22:18:46.319Z,101284
2018-01-23T22:21:14.541Z,101281
2018-01-23T22:23:42.772Z,101272
2018-01-23T22:26:10.975Z,101277
2018-01-23T22:28:39.164Z,101273
2018-01-23T22:31:07.410Z,101272
2018-01-23T22:33:35.679Z,101262
2018-01-23T22:36:04.739Z,101272
2018-01-23T22:38:32.956Z,101272
2018-01-23T22:41:01.896Z,101275
2018-01-23T22:43:30.250Z,101268
2018-01-23T22:45:58.490Z,101262
2018-01-23T22:48:27.500Z,101243
2018-01-23T22:50:55.645Z,101260
2018-01-23T22:53:24.986Z,101242
2018-01-23T22:55:53.180Z,101245
2018-01-23T22:58:21.363Z,101248
2018-01-23T23:00:49.515Z,101252
2018-01-23T23:03:17.657Z,101248
2018-01-23T23:05:45.936Z,101249
2018-01-23T23:08:14.149Z,101242
2018-01-23T23:10:42.632Z,101242
2018-01-23T23:13:10.816Z,101248
2018-01-23T23:15:39.064Z,101238
2018-01-23T23:18:07.330Z,101233
2018-01-23T23:20:35.496Z,101230
2018-01-23T23:23:03.699Z,101231
2018-01-23T23:25:31.874Z,101238
2018-01-23T23:28:00.065Z,101242
2018-01-23T23:30:28.229Z,101236
2018-01-23T23:32:56.464Z,101242
2018-01-23T23:35:24.717Z,101241
2018-01-23T23:37:52.927Z,101234
2018-01-23T23:40:21.104Z,101236
2018-01-23T23:42:49.410Z,101240
2018-01-23T23:45:17.660Z,101237
2018-01-23T23:47:45.931Z,101230
2018-01-23T23:50:14.096Z,101224
2018-01-23T23:52:42.263Z,101231
2018-01-23T23:55:10.551Z,101239
2018-01-23T23:57:38.857Z,101238
